sensor_id;sensor_type;location;lat;lon;timestamp;pressure;altitude;pressure_sealevel;temperature;humidity
33422;BME280;19763;55.798;37.782;2022-12-29T00:00:06;147530.66;;;0.82;87.01
33422;BME280;19763;55.798;37.782;2022-12-29T00:02:33;147525.59;;;0.80;86.62
33422;BME280;19763;55.798;37.782;2022-12-29T00:05:00;147554.84;;;0.92;86.04
33422;BME280;19763;55.798;37.782;2022-12-29T00:07:27;147529.41;;;0.81;85.99
33422;BME280;19763;55.798;37.782;2022-12-29T00:09:53;147526.84;;;0.80;86.53
33422;BME280;19763;55.798;37.782;2022-12-29T00:12:19;147526.84;;;0.80;86.47
33422;BME280;19763;55.798;37.782;2022-12-29T00:14:45;147537.03;;;0.84;86.40
33422;BME280;19763;55.798;37.782;2022-12-29T00:17:29;147517.91;;;0.77;86.15
33422;BME280;19763;55.798;37.782;2022-12-29T00:19:55;147507.72;;;0.73;87.01
33422;BME280;19763;55.798;37.782;2022-12-29T00:22:39;147529.41;;;0.81;87.58
33422;BME280;19763;55.798;37.782;2022-12-29T00:25:23;147535.72;;;0.84;87.57
33422;BME280;19763;55.798;37.782;2022-12-29T00:28:08;147558.66;;;0.93;87.45
33422;BME280;19763;55.798;37.782;2022-12-29T00:30:52;147524.28;;;0.79;87.35
33422;BME280;19763;55.798;37.782;2022-12-29T00:33:37;147488.69;;;0.65;87.92
33422;BME280;19763;55.798;37.782;2022-12-29T00:36:31;147467.06;;;0.56;88.75
33422;BME280;19763;55.798;37.782;2022-12-29T00:39:09;147427.63;;;0.40;88.46
33422;BME280;19763;55.798;37.782;2022-12-29T00:41:54;147436.50;;;0.44;89.01
33422;BME280;19763;55.798;37.782;2022-12-29T00:44:38;147470.88;;;0.58;89.11
33422;BME280;19763;55.798;37.782;2022-12-29T00:47:04;147458.13;;;0.52;88.60
33422;BME280;19763;55.798;37.782;2022-12-29T00:49:30;147474.69;;;0.59;88.48
33422;BME280;19763;55.798;37.782;2022-12-29T00:54:32;147511.59;;;0.74;87.87
33422;BME280;19763;55.798;37.782;2022-12-29T00:56:59;147489.94;;;0.65;87.02
33422;BME280;19763;55.798;37.782;2022-12-29T00:59:24;147473.44;;;0.59;86.48
33422;BME280;19763;55.798;37.782;2022-12-29T01:01:51;147450.50;;;0.49;85.20
33422;BME280;19763;55.798;37.782;2022-12-29T01:04:17;147482.31;;;0.62;84.01
33422;BME280;19763;55.798;37.782;2022-12-29T01:06:43;147493.75;;;0.67;84.60
33422;BME280;19763;55.798;37.782;2022-12-29T01:09:09;147500.09;;;0.69;83.46
33422;BME280;19763;55.798;37.782;2022-12-29T01:11:54;147484.88;;;0.63;83.41
33422;BME280;19763;55.798;37.782;2022-12-29T01:14:21;147519.22;;;0.77;83.93
33422;BME280;19763;55.798;37.782;2022-12-29T01:16:47;147492.50;;;0.66;82.91
33422;BME280;19763;55.798;37.782;2022-12-29T01:19:13;147489.94;;;0.65;82.96
33422;BME280;19763;55.798;37.782;2022-12-29T01:21:39;147440.31;;;0.45;83.14
33422;BME280;19763;55.798;37.782;2022-12-29T01:24:05;147468.31;;;0.57;83.70
33422;BME280;19763;55.798;37.782;2022-12-29T01:26:30;147450.50;;;0.49;83.29
33422;BME280;19763;55.798;37.782;2022-12-29T01:28:56;147430.16;;;0.41;83.74
33422;BME280;19763;55.798;37.782;2022-12-29T01:31:21;147454.31;;;0.51;83.99
33422;BME280;19763;55.798;37.782;2022-12-29T01:33:47;147432.69;;;0.42;83.47
33422;BME280;19763;55.798;37.782;2022-12-29T01:36:14;147407.28;;;0.32;83.61
33422;BME280;19763;55.798;37.782;2022-12-29T01:38:41;147472.13;;;0.58;83.60
33422;BME280;19763;55.798;37.782;2022-12-29T01:41:08;147437.81;;;0.44;82.96
33422;BME280;19763;55.798;37.782;2022-12-29T01:43:48;147394.53;;;0.27;82.42
33422;BME280;19763;55.798;37.782;2022-12-29T01:48:52;147330.97;;;0.01;81.73
33422;BME280;19763;55.798;37.782;2022-12-29T01:51:20;147353.88;;;0.10;81.16
33422;BME280;19763;55.798;37.782;2022-12-29T01:53:46;147364.06;;;0.14;81.64
33422;BME280;19763;55.798;37.782;2022-12-29T01:56:15;147383.09;;;0.22;81.93
33422;BME280;19763;55.798;37.782;2022-12-29T01:58:45;147355.13;;;0.11;81.89
33422;BME280;19763;55.798;37.782;2022-12-29T02:01:12;147389.47;;;0.25;81.54
33422;BME280;19763;55.798;37.782;2022-12-29T02:03:38;147381.84;;;0.22;80.70
33422;BME280;19763;55.798;37.782;2022-12-29T02:06:10;147352.56;;;0.10;80.81
33422;BME280;19763;55.798;37.782;2022-12-29T03:46:57;147253.44;;;-0.30;82.63
33422;BME280;19763;55.798;37.782;2022-12-29T03:49:23;147257.25;;;-0.29;82.68
33422;BME280;19763;55.798;37.782;2022-12-29T03:51:48;147235.63;;;-0.38;82.54
33422;BME280;19763;55.798;37.782;2022-12-29T03:54:14;147163.22;;;-0.67;83.98
33422;BME280;19763;55.798;37.782;2022-12-29T03:56:39;147173.34;;;-0.63;83.35
33422;BME280;19763;55.798;37.782;2022-12-29T03:59:05;147198.81;;;-0.53;84.21
33422;BME280;19763;55.798;37.782;2022-12-29T04:01:30;147229.28;;;-0.40;84.66
33422;BME280;19763;55.798;37.782;2022-12-29T04:03:56;147245.81;;;-0.33;84.11
33422;BME280;19763;55.798;37.782;2022-12-29T04:06:21;147229.28;;;-0.40;82.44
33422;BME280;19763;55.798;37.782;2022-12-29T04:08:47;147156.88;;;-0.70;82.70
33422;BME280;19763;55.798;37.782;2022-12-29T04:11:13;147179.72;;;-0.60;82.55
33422;BME280;19763;55.798;37.782;2022-12-29T04:13:38;147173.34;;;-0.63;83.08
33422;BME280;19763;55.798;37.782;2022-12-29T04:16:06;147130.16;;;-0.80;82.92
33422;BME280;19763;55.798;37.782;2022-12-29T04:18:32;147153.06;;;-0.71;83.36
33422;BME280;19763;55.798;37.782;2022-12-29T04:20:57;147177.22;;;-0.61;83.65
33422;BME280;19763;55.798;37.782;2022-12-29T04:23:27;147186.09;;;-0.58;82.52
33422;BME280;19763;55.798;37.782;2022-12-29T04:25:53;147127.63;;;-0.81;82.06
33422;BME280;19763;55.798;37.782;2022-12-29T04:28:19;147150.50;;;-0.72;82.07
33422;BME280;19763;55.798;37.782;2022-12-29T04:30:45;147135.28;;;-0.78;82.77
33422;BME280;19763;55.798;37.782;2022-12-29T04:33:11;147126.38;;;-0.82;82.54
33422;BME280;19763;55.798;37.782;2022-12-29T04:35:37;147137.78;;;-0.77;83.37
33422;BME280;19763;55.798;37.782;2022-12-29T04:38:02;147175.91;;;-0.62;83.20
33422;BME280;19763;55.798;37.782;2022-12-29T04:40:28;147163.22;;;-0.67;82.91
33422;BME280;19763;55.798;37.782;2022-12-29T04:42:54;147183.53;;;-0.59;83.02
33422;BME280;19763;55.798;37.782;2022-12-29T04:45:20;147212.78;;;-0.47;82.29
33422;BME280;19763;55.798;37.782;2022-12-29T04:47:45;147202.63;;;-0.51;82.55
33422;BME280;19763;55.798;37.782;2022-12-29T04:50:11;147219.09;;;-0.44;82.54
33422;BME280;19763;55.798;37.782;2022-12-29T04:52:36;147201.31;;;-0.52;82.25
33422;BME280;19763;55.798;37.782;2022-12-29T04:55:03;147192.44;;;-0.55;82.38
33422;BME280;19763;55.798;37.782;2022-12-29T04:57:29;147178.47;;;-0.61;82.28
33422;BME280;19763;55.798;37.782;2022-12-29T04:59:54;147183.53;;;-0.59;82.61
33422;BME280;19763;55.798;37.782;2022-12-29T05:02:20;147160.69;;;-0.68;82.60
33422;BME280;19763;55.798;37.782;2022-12-29T05:04:46;147161.94;;;-0.67;83.43
33422;BME280;19763;55.798;37.782;2022-12-29T05:07:12;147160.69;;;-0.68;82.92
33422;BME280;19763;55.798;37.782;2022-12-29T05:09:38;147174.66;;;-0.62;82.58
33422;BME280;19763;55.798;37.782;2022-12-29T05:12:04;147136.53;;;-0.78;82.76
33422;BME280;19763;55.798;37.782;2022-12-29T05:14:30;147141.59;;;-0.76;82.55
33422;BME280;19763;55.798;37.782;2022-12-29T05:16:55;147149.25;;;-0.73;83.58
33422;BME280;19763;55.798;37.782;2022-12-29T05:19:21;147142.91;;;-0.75;82.62
33422;BME280;19763;55.798;37.782;2022-12-29T05:21:46;147094.59;;;-0.95;84.01
33422;BME280;19763;55.798;37.782;2022-12-29T05:24:12;147088.25;;;-0.97;83.79
33422;BME280;19763;55.798;37.782;2022-12-29T05:26:37;147125.09;;;-0.82;83.04
33422;BME280;19763;55.798;37.782;2022-12-29T05:29:03;147126.38;;;-0.82;83.05
33422;BME280;19763;55.798;37.782;2022-12-29T05:31:29;147147.97;;;-0.73;83.30
33422;BME280;19763;55.798;37.782;2022-12-29T05:33:54;147144.16;;;-0.75;83.12
33422;BME280;19763;55.798;37.782;2022-12-29T05:36:20;147103.53;;;-0.91;83.07
33422;BME280;19763;55.798;37.782;2022-12-29T05:38:45;147111.13;;;-0.88;83.34
33422;BME280;19763;55.798;37.782;2022-12-29T05:41:11;147111.13;;;-0.88;83.26
33422;BME280;19763;55.798;37.782;2022-12-29T05:43:37;147100.97;;;-0.92;83.00
33422;BME280;19763;55.798;37.782;2022-12-29T05:46:03;147116.19;;;-0.86;82.57
33422;BME280;19763;55.798;37.782;2022-12-29T05:48:28;147146.69;;;-0.74;82.90
33422;BME280;19763;55.798;37.782;2022-12-29T05:50:54;147139.09;;;-0.77;82.49
33422;BME280;19763;55.798;37.782;2022-12-29T05:53:20;147163.22;;;-0.67;82.30
33422;BME280;19763;55.798;37.782;2022-12-29T05:55:49;147160.69;;;-0.68;82.29
33422;BME280;19763;55.798;37.782;2022-12-29T05:58:17;147169.56;;;-0.64;83.09
33422;BME280;19763;55.798;37.782;2022-12-29T06:00:43;147168.28;;;-0.65;83.21
33422;BME280;19763;55.798;37.782;2022-12-29T06:03:09;147202.63;;;-0.51;83.76
33422;BME280;19763;55.798;37.782;2022-12-29T06:05:35;147201.31;;;-0.52;81.80
33422;BME280;19763;55.798;37.782;2022-12-29T06:08:00;147186.09;;;-0.58;82.31
33422;BME280;19763;55.798;37.782;2022-12-29T06:10:26;147189.88;;;-0.56;82.42
33422;BME280;19763;55.798;37.782;2022-12-29T06:12:51;147202.63;;;-0.51;82.11
33422;BME280;19763;55.798;37.782;2022-12-29T06:15:17;147208.97;;;-0.48;82.55
33422;BME280;19763;55.798;37.782;2022-12-29T06:17:43;147207.69;;;-0.49;82.48
33422;BME280;19763;55.798;37.782;2022-12-29T06:20:09;147216.59;;;-0.45;83.09
33422;BME280;19763;55.798;37.782;2022-12-29T06:22:36;147220.41;;;-0.44;82.72
33422;BME280;19763;55.798;37.782;2022-12-29T06:25:02;147214.03;;;-0.46;81.87
33422;BME280;19763;55.798;37.782;2022-12-29T06:27:28;147208.97;;;-0.48;81.78
33422;BME280;19763;55.798;37.782;2022-12-29T06:29:54;147172.09;;;-0.63;82.69
33422;BME280;19763;55.798;37.782;2022-12-29T06:32:20;147200.06;;;-0.52;81.75
33422;BME280;19763;55.798;37.782;2022-12-29T06:35:06;147170.84;;;-0.64;81.98
33422;BME280;19763;55.798;37.782;2022-12-29T06:37:32;147164.50;;;-0.66;81.81
33422;BME280;19763;55.798;37.782;2022-12-29T06:39:58;147140.34;;;-0.76;81.79
33422;BME280;19763;55.798;37.782;2022-12-29T06:42:23;147175.91;;;-0.62;81.52
33422;BME280;19763;55.798;37.782;2022-12-29T06:44:49;147153.06;;;-0.71;81.69
33422;BME280;19763;55.798;37.782;2022-12-29T06:47:15;147184.81;;;-0.58;81.72
33422;BME280;19763;55.798;37.782;2022-12-29T06:49:40;147161.94;;;-0.67;82.10
33422;BME280;19763;55.798;37.782;2022-12-29T06:52:06;147141.59;;;-0.76;81.83
33422;BME280;19763;55.798;37.782;2022-12-29T06:54:32;147169.56;;;-0.64;82.31
33422;BME280;19763;55.798;37.782;2022-12-29T06:56:57;147184.81;;;-0.58;81.51
33422;BME280;19763;55.798;37.782;2022-12-29T06:59:23;147175.91;;;-0.62;81.76
33422;BME280;19763;55.798;37.782;2022-12-29T07:01:50;147191.13;;;-0.56;81.53
33422;BME280;19763;55.798;37.782;2022-12-29T07:04:16;147205.13;;;-0.50;80.72
33422;BME280;19763;55.798;37.782;2022-12-29T07:06:41;147153.06;;;-0.71;81.86
33422;BME280;19763;55.798;37.782;2022-12-29T07:09:08;147203.88;;;-0.50;81.17
33422;BME280;19763;55.798;37.782;2022-12-29T07:11:34;147219.09;;;-0.44;81.60
33422;BME280;19763;55.798;37.782;2022-12-29T07:14:01;147231.81;;;-0.39;81.20
33422;BME280;19763;55.798;37.782;2022-12-29T07:16:27;147239.44;;;-0.36;80.12
33422;BME280;19763;55.798;37.782;2022-12-29T07:18:54;147245.81;;;-0.33;81.11
33422;BME280;19763;55.798;37.782;2022-12-29T07:21:20;147233.09;;;-0.39;80.21
33422;BME280;19763;55.798;37.782;2022-12-29T07:23:47;147243.25;;;-0.35;80.14
33422;BME280;19763;55.798;37.782;2022-12-29T07:26:14;147240.75;;;-0.36;80.51
33422;BME280;19763;55.798;37.782;2022-12-29T07:28:40;147257.25;;;-0.29;80.42
33422;BME280;19763;55.798;37.782;2022-12-29T07:31:13;147253.44;;;-0.30;80.38
33422;BME280;19763;55.798;37.782;2022-12-29T07:33:39;147250.88;;;-0.31;81.19
33422;BME280;19763;55.798;37.782;2022-12-29T07:36:05;147280.13;;;-0.20;80.52
33422;BME280;19763;55.798;37.782;2022-12-29T07:38:31;147276.34;;;-0.21;79.43
33422;BME280;19763;55.798;37.782;2022-12-29T07:40:57;147277.59;;;-0.21;80.14
33422;BME280;19763;55.798;37.782;2022-12-29T07:43:23;147282.66;;;-0.19;80.13
33422;BME280;19763;55.798;37.782;2022-12-29T07:45:49;147269.97;;;-0.24;80.28
33422;BME280;19763;55.798;37.782;2022-12-29T07:48:14;147254.72;;;-0.30;79.93
33422;BME280;19763;55.798;37.782;2022-12-29T07:50:40;147267.41;;;-0.25;80.34
33422;BME280;19763;55.798;37.782;2022-12-29T07:53:05;147263.59;;;-0.26;79.92
33422;BME280;19763;55.798;37.782;2022-12-29T07:55:31;147278.84;;;-0.20;80.31
33422;BME280;19763;55.798;37.782;2022-12-29T07:57:57;147267.41;;;-0.25;80.86
33422;BME280;19763;55.798;37.782;2022-12-29T08:00:22;147267.41;;;-0.25;80.54
33422;BME280;19763;55.798;37.782;2022-12-29T08:02:49;147282.66;;;-0.19;80.51
33422;BME280;19763;55.798;37.782;2022-12-29T08:05:15;147254.72;;;-0.30;80.29
33422;BME280;19763;55.798;37.782;2022-12-29T08:07:43;147233.09;;;-0.39;79.37
33422;BME280;19763;55.798;37.782;2022-12-29T08:10:10;147228.03;;;-0.41;79.80
33422;BME280;19763;55.798;37.782;2022-12-29T08:12:37;147236.88;;;-0.37;79.19
33422;BME280;19763;55.798;37.782;2022-12-29T08:15:04;147277.59;;;-0.21;79.98
33422;BME280;19763;55.798;37.782;2022-12-29T08:17:30;147285.19;;;-0.18;78.87
33422;BME280;19763;55.798;37.782;2022-12-29T08:19:55;147268.72;;;-0.24;79.33
33422;BME280;19763;55.798;37.782;2022-12-29T08:22:23;147242.00;;;-0.35;79.05
33422;BME280;19763;55.798;37.782;2022-12-29T08:24:48;147230.56;;;-0.40;79.55
33422;BME280;19763;55.798;37.782;2022-12-29T08:27:14;147181.03;;;-0.60;79.16
33422;BME280;19763;55.798;37.782;2022-12-29T08:29:39;147205.13;;;-0.50;80.08
33422;BME280;19763;55.798;37.782;2022-12-29T08:32:05;147235.63;;;-0.38;80.45
33422;BME280;19763;55.798;37.782;2022-12-29T08:34:31;147253.44;;;-0.30;79.92
33422;BME280;19763;55.798;37.782;2022-12-29T08:36:57;147253.44;;;-0.30;79.20
33422;BME280;19763;55.798;37.782;2022-12-29T08:39:23;147208.97;;;-0.48;78.73
33422;BME280;19763;55.798;37.782;2022-12-29T08:41:48;147221.66;;;-0.43;79.43
33422;BME280;19763;55.798;37.782;2022-12-29T08:44:14;147210.22;;;-0.48;79.55
33422;BME280;19763;55.798;37.782;2022-12-29T08:46:40;147226.78;;;-0.41;79.60
33422;BME280;19763;55.798;37.782;2022-12-29T08:49:05;147230.56;;;-0.40;79.41
33422;BME280;19763;55.798;37.782;2022-12-29T08:51:31;147254.72;;;-0.30;79.08
33422;BME280;19763;55.798;37.782;2022-12-29T08:53:56;147264.84;;;-0.26;79.76
33422;BME280;19763;55.798;37.782;2022-12-29T08:56:22;147257.25;;;-0.29;79.32
33422;BME280;19763;55.798;37.782;2022-12-29T08:58:52;147231.81;;;-0.39;79.70
33422;BME280;19763;55.798;37.782;2022-12-29T09:01:17;147216.59;;;-0.45;79.10
33422;BME280;19763;55.798;37.782;2022-12-29T09:03:43;147262.34;;;-0.27;79.47
33422;BME280;19763;55.798;37.782;2022-12-29T09:06:09;147262.34;;;-0.27;78.75
33422;BME280;19763;55.798;37.782;2022-12-29T09:08:34;147247.06;;;-0.33;78.68
33422;BME280;19763;55.798;37.782;2022-12-29T09:11:40;147247.06;;;-0.33;78.54
33422;BME280;19763;55.798;37.782;2022-12-29T09:13:59;147297.94;;;-0.12;78.47
33422;BME280;19763;55.798;37.782;2022-12-29T09:16:24;147320.78;;;-0.03;79.37
33422;BME280;19763;55.798;37.782;2022-12-29T09:18:50;147347.50;;;0.08;79.73
33422;BME280;19763;55.798;37.782;2022-12-29T09:21:16;147355.13;;;0.11;78.20
33422;BME280;19763;55.798;37.782;2022-12-29T09:23:41;147314.47;;;-0.06;77.96
33422;BME280;19763;55.798;37.782;2022-12-29T09:26:07;147315.72;;;-0.05;78.11
33422;BME280;19763;55.798;37.782;2022-12-29T09:28:34;147304.31;;;-0.10;78.50
33422;BME280;19763;55.798;37.782;2022-12-29T09:31:00;147316.97;;;-0.05;78.17
33422;BME280;19763;55.798;37.782;2022-12-29T09:33:26;147371.69;;;0.17;78.98
33422;BME280;19763;55.798;37.782;2022-12-29T09:35:54;147343.69;;;0.06;79.08
33422;BME280;19763;55.798;37.782;2022-12-29T09:38:20;147343.69;;;0.06;77.32
33422;BME280;19763;55.798;37.782;2022-12-29T09:40:51;147336.06;;;0.03;76.88
33422;BME280;19763;55.798;37.782;2022-12-29T09:43:27;147269.97;;;-0.24;76.94
33422;BME280;19763;55.798;37.782;2022-12-29T09:48:47;147269.97;;;-0.24;77.67
33422;BME280;19763;55.798;37.782;2022-12-29T09:56:55;147277.59;;;-0.21;77.58
33422;BME280;19763;55.798;37.782;2022-12-29T09:59:25;147278.84;;;-0.20;77.95
33422;BME280;19763;55.798;37.782;2022-12-29T10:02:37;147328.47;;;0.00;78.53
33422;BME280;19763;55.798;37.782;2022-12-29T10:05:13;147266.16;;;-0.25;76.92
33422;BME280;19763;55.798;37.782;2022-12-29T10:08:19;147310.63;;;-0.07;78.07
33422;BME280;19763;55.798;37.782;2022-12-29T10:10:51;147303.00;;;-0.10;77.25
33422;BME280;19763;55.798;37.782;2022-12-29T10:16:11;147334.78;;;0.03;77.18
33422;BME280;19763;55.798;37.782;2022-12-29T10:24:12;147277.59;;;-0.21;77.70
33422;BME280;19763;55.798;37.782;2022-12-29T10:26:40;147300.50;;;-0.11;77.96
33422;BME280;19763;55.798;37.782;2022-12-29T10:29:20;147292.81;;;-0.14;77.36
33422;BME280;19763;55.798;37.782;2022-12-29T10:35:26;147292.81;;;-0.14;78.78
33422;BME280;19763;55.798;37.782;2022-12-29T10:40:57;147282.66;;;-0.19;78.00
33422;BME280;19763;55.798;37.782;2022-12-29T10:43:36;147289.00;;;-0.16;77.72
33422;BME280;19763;55.798;37.782;2022-12-29T10:46:14;147269.97;;;-0.24;77.49
33422;BME280;19763;55.798;37.782;2022-12-29T10:48:41;147287.75;;;-0.16;77.44
33422;BME280;19763;55.798;37.782;2022-12-29T10:51:11;147285.19;;;-0.18;77.50
33422;BME280;19763;55.798;37.782;2022-12-29T10:58:51;147276.34;;;-0.21;77.93
33422;BME280;19763;55.798;37.782;2022-12-29T11:01:20;147282.66;;;-0.19;77.96
33422;BME280;19763;55.798;37.782;2022-12-29T11:06:25;147276.34;;;-0.21;78.72
33422;BME280;19763;55.798;37.782;2022-12-29T11:08:57;147305.56;;;-0.09;77.98
33422;BME280;19763;55.798;37.782;2022-12-29T11:11:27;147294.13;;;-0.14;78.63
33422;BME280;19763;55.798;37.782;2022-12-29T11:13:59;147311.91;;;-0.07;77.81
33422;BME280;19763;55.798;37.782;2022-12-29T11:16:30;147281.41;;;-0.19;77.36
33422;BME280;19763;55.798;37.782;2022-12-29T11:18:57;147313.16;;;-0.06;77.57
33422;BME280;19763;55.798;37.782;2022-12-29T11:21:37;147300.50;;;-0.11;77.29
33422;BME280;19763;55.798;37.782;2022-12-29T11:24:26;147300.50;;;-0.11;78.25
33422;BME280;19763;55.798;37.782;2022-12-29T11:27:14;147315.72;;;-0.05;79.26
33422;BME280;19763;55.798;37.782;2022-12-29T11:29:42;147273.78;;;-0.22;78.36
33422;BME280;19763;55.798;37.782;2022-12-29T11:32:23;147281.41;;;-0.19;78.10
33422;BME280;19763;55.798;37.782;2022-12-29T11:34:49;147291.56;;;-0.15;78.81
33422;BME280;19763;55.798;37.782;2022-12-29T11:37:23;147239.44;;;-0.36;77.93
33422;BME280;19763;55.798;37.782;2022-12-29T11:40:05;147221.66;;;-0.43;78.05
33422;BME280;19763;55.798;37.782;2022-12-29T11:42:39;147198.81;;;-0.53;78.80
33422;BME280;19763;55.798;37.782;2022-12-29T11:45:16;147212.78;;;-0.47;78.77
33422;BME280;19763;55.798;37.782;2022-12-29T11:47:45;147238.19;;;-0.37;78.34
33422;BME280;19763;55.798;37.782;2022-12-29T11:50:21;147231.81;;;-0.39;78.84
33422;BME280;19763;55.798;37.782;2022-12-29T11:52:49;147210.22;;;-0.48;79.96
33422;BME280;19763;55.798;37.782;2022-12-29T11:55:22;147181.03;;;-0.60;79.19
33422;BME280;19763;55.798;37.782;2022-12-29T11:57:50;147201.31;;;-0.52;78.96
33422;BME280;19763;55.798;37.782;2022-12-29T12:00:19;147192.44;;;-0.55;78.68
33422;BME280;19763;55.798;37.782;2022-12-29T12:05:47;147217.84;;;-0.45;78.40
33422;BME280;19763;55.798;37.782;2022-12-29T12:08:41;147254.72;;;-0.30;79.46
33422;BME280;19763;55.798;37.782;2022-12-29T12:11:15;147282.66;;;-0.19;79.55
33422;BME280;19763;55.798;37.782;2022-12-29T12:16:52;147254.72;;;-0.30;79.82
33422;BME280;19763;55.798;37.782;2022-12-29T12:19:42;147236.88;;;-0.37;78.56
33422;BME280;19763;55.798;37.782;2022-12-29T12:22:27;147250.88;;;-0.31;79.58
33422;BME280;19763;55.798;37.782;2022-12-29T12:25:19;147277.59;;;-0.21;79.04
33422;BME280;19763;55.798;37.782;2022-12-29T12:30:17;147254.72;;;-0.30;79.66
33422;BME280;19763;55.798;37.782;2022-12-29T12:41:09;147202.63;;;-0.51;81.16
33422;BME280;19763;55.798;37.782;2022-12-29T12:43:38;147150.50;;;-0.72;80.89
33422;BME280;19763;55.798;37.782;2022-12-29T12:55:14;147235.63;;;-0.38;82.32
33422;BME280;19763;55.798;37.782;2022-12-29T13:00:20;147222.97;;;-0.43;81.53
33422;BME280;19763;55.798;37.782;2022-12-29T13:14:34;147247.06;;;-0.33;81.13
33422;BME280;19763;55.798;37.782;2022-12-29T13:22:49;147242.00;;;-0.35;80.44
33422;BME280;19763;55.798;37.782;2022-12-29T13:25:27;147163.22;;;-0.67;80.87
33422;BME280;19763;55.798;37.782;2022-12-29T13:36:36;147144.16;;;-0.75;81.47
33422;BME280;19763;55.798;37.782;2022-12-29T13:39:12;147089.53;;;-0.97;82.30
33422;BME280;19763;55.798;37.782;2022-12-29T13:41:54;147135.28;;;-0.78;82.29
33422;BME280;19763;55.798;37.782;2022-12-29T13:44:30;147136.53;;;-0.78;81.59
33422;BME280;19763;55.798;37.782;2022-12-29T13:47:00;147116.19;;;-0.86;82.85
33422;BME280;19763;55.798;37.782;2022-12-29T13:49:27;147100.97;;;-0.92;83.43
33422;BME280;19763;55.798;37.782;2022-12-29T13:52:15;147102.22;;;-0.92;83.19
33422;BME280;19763;55.798;37.782;2022-12-29T13:55:00;147135.28;;;-0.78;83.13
33422;BME280;19763;55.798;37.782;2022-12-29T14:01:12;147178.47;;;-0.61;82.97
33422;BME280;19763;55.798;37.782;2022-12-29T14:03:53;147156.88;;;-0.70;82.39
33422;BME280;19763;55.798;37.782;2022-12-29T14:06:29;147188.63;;;-0.57;81.87
33422;BME280;19763;55.798;37.782;2022-12-29T14:09:01;147177.22;;;-0.61;82.23
33422;BME280;19763;55.798;37.782;2022-12-29T14:11:36;147177.22;;;-0.61;82.83
33422;BME280;19763;55.798;37.782;2022-12-29T14:14:24;147142.91;;;-0.75;82.65
33422;BME280;19763;55.798;37.782;2022-12-29T14:16:51;147116.19;;;-0.86;82.84
33422;BME280;19763;55.798;37.782;2022-12-29T14:19:27;147106.03;;;-0.90;83.63
33422;BME280;19763;55.798;37.782;2022-12-29T14:22:00;147108.56;;;-0.89;83.44
33422;BME280;19763;55.798;37.782;2022-12-29T14:32:35;147102.22;;;-0.92;83.38
33422;BME280;19763;55.798;37.782;2022-12-29T14:38:19;147090.78;;;-0.96;83.99
33422;BME280;19763;55.798;37.782;2022-12-29T14:40:47;147139.09;;;-0.77;83.46
33422;BME280;19763;55.798;37.782;2022-12-29T14:43:26;147155.56;;;-0.70;82.42
33422;BME280;19763;55.798;37.782;2022-12-29T14:45:55;147193.69;;;-0.55;82.91
33422;BME280;19763;55.798;37.782;2022-12-29T14:48:35;147165.75;;;-0.66;83.04
33422;BME280;19763;55.798;37.782;2022-12-29T14:51:02;147174.66;;;-0.62;83.18
33422;BME280;19763;55.798;37.782;2022-12-29T14:56:12;147122.56;;;-0.83;83.55
33422;BME280;19763;55.798;37.782;2022-12-29T14:58:43;147112.38;;;-0.88;84.73
33422;BME280;19763;55.798;37.782;2022-12-29T15:04:03;147186.09;;;-0.58;84.47
33422;BME280;19763;55.798;37.782;2022-12-29T15:06:31;147150.50;;;-0.72;82.88
33422;BME280;19763;55.798;37.782;2022-12-29T15:09:09;147178.47;;;-0.61;83.44
33422;BME280;19763;55.798;37.782;2022-12-29T15:17:01;147146.69;;;-0.74;83.79
33422;BME280;19763;55.798;37.782;2022-12-29T15:19:33;147167.03;;;-0.65;83.89
33422;BME280;19763;55.798;37.782;2022-12-29T15:22:00;147150.50;;;-0.72;84.24
33422;BME280;19763;55.798;37.782;2022-12-29T15:24:26;147188.63;;;-0.57;84.61
33422;BME280;19763;55.798;37.782;2022-12-29T15:26:53;147154.31;;;-0.71;84.00
33422;BME280;19763;55.798;37.782;2022-12-29T15:29:39;147206.44;;;-0.49;84.02
33422;BME280;19763;55.798;37.782;2022-12-29T15:34:37;147147.97;;;-0.73;84.63
33422;BME280;19763;55.798;37.782;2022-12-29T15:37:07;147130.16;;;-0.80;85.09
33422;BME280;19763;55.798;37.782;2022-12-29T15:39:33;147109.84;;;-0.89;84.94
33422;BME280;19763;55.798;37.782;2022-12-29T15:44:46;147125.09;;;-0.82;84.29
33422;BME280;19763;55.798;37.782;2022-12-29T15:47:16;147069.22;;;-1.05;85.66
33422;BME280;19763;55.798;37.782;2022-12-29T15:49:52;147097.16;;;-0.94;85.70
33422;BME280;19763;55.798;37.782;2022-12-29T15:52:20;147048.88;;;-1.13;87.02
33422;BME280;19763;55.798;37.782;2022-12-29T15:54:48;147053.94;;;-1.11;86.87
33422;BME280;19763;55.798;37.782;2022-12-29T15:57:23;147033.66;;;-1.19;87.35
33422;BME280;19763;55.798;37.782;2022-12-29T15:59:49;147103.53;;;-0.91;87.34
33422;BME280;19763;55.798;37.782;2022-12-29T16:02:15;147109.84;;;-0.89;87.38
33422;BME280;19763;55.798;37.782;2022-12-29T16:04:41;147158.13;;;-0.69;87.46
33422;BME280;19763;55.798;37.782;2022-12-29T16:07:30;147130.16;;;-0.80;87.71
33422;BME280;19763;55.798;37.782;2022-12-29T16:09:57;147125.09;;;-0.82;86.19
33422;BME280;19763;55.798;37.782;2022-12-29T16:12:28;147181.03;;;-0.60;86.28
33422;BME280;19763;55.798;37.782;2022-12-29T16:14:58;147114.94;;;-0.87;86.94
33422;BME280;19763;55.798;37.782;2022-12-29T16:17:27;147109.84;;;-0.89;87.02
33422;BME280;19763;55.798;37.782;2022-12-29T16:20:00;147111.13;;;-0.88;87.36
33422;BME280;19763;55.798;37.782;2022-12-29T16:22:38;147142.91;;;-0.75;86.51
33422;BME280;19763;55.798;37.782;2022-12-29T16:25:23;147191.13;;;-0.56;87.07
33422;BME280;19763;55.798;37.782;2022-12-29T16:27:49;147184.81;;;-0.58;86.07
33422;BME280;19763;55.798;37.782;2022-12-29T16:30:17;147174.66;;;-0.62;86.58
33422;BME280;19763;55.798;37.782;2022-12-29T16:32:50;147122.56;;;-0.83;86.47
33422;BME280;19763;55.798;37.782;2022-12-29T16:35:20;147156.88;;;-0.70;86.88